sensor_id;sensor_type;location;lat;lon;timestamp;pressure;altitude;pressure_sealevel;temperature;humidity
12991;BME280;6560;57.692;11.958;2022-07-19T00:01:11;101348.25;;;43.60;47.39
12991;BME280;6560;57.692;11.958;2022-07-19T00:03:37;101397.88;;;43.49;48.12
12991;BME280;6560;57.692;11.958;2022-07-19T00:06:02;101381.09;;;43.33;48.40
12991;BME280;6560;57.692;11.958;2022-07-19T00:08:28;101406.25;;;43.11;49.17
12991;BME280;6560;57.692;11.958;2022-07-19T00:10:53;101387.50;;;43.16;48.68
12991;BME280;6560;57.692;11.958;2022-07-19T00:13:19;101392.13;;;43.35;48.68
12991;BME280;6560;57.692;11.958;2022-07-19T00:15:45;101397.41;;;43.22;48.92
12991;BME280;6560;57.692;11.958;2022-07-19T00:18:10;101396.06;;;43.30;48.93
12991;BME280;6560;57.692;11.958;2022-07-19T00:20:36;101397.94;;;43.30;48.49
12991;BME280;6560;57.692;11.958;2022-07-19T00:23:01;101390.13;;;43.38;47.72
12991;BME280;6560;57.692;11.958;2022-07-19T00:25:27;101395.53;;;43.94;47.84
12991;BME280;6560;57.692;11.958;2022-07-19T00:27:52;101391.00;;;43.20;48.39
12991;BME280;6560;57.692;11.958;2022-07-19T00:30:18;101367.38;;;43.66;47.53
12991;BME280;6560;57.692;11.958;2022-07-19T00:32:43;101381.25;;;43.11;48.60
12991;BME280;6560;57.692;11.958;2022-07-19T00:35:09;101381.09;;;43.52;47.66
12991;BME280;6560;57.692;11.958;2022-07-19T00:37:35;101381.94;;;44.40;45.25
12991;BME280;6560;57.692;11.958;2022-07-19T00:40:00;101387.25;;;44.77;43.61
12991;BME280;6560;57.692;11.958;2022-07-19T00:42:26;101387.38;;;44.59;43.61
12991;BME280;6560;57.692;11.958;2022-07-19T00:44:52;101385.31;;;43.95;45.30
12991;BME280;6560;57.692;11.958;2022-07-19T00:47:17;101399.09;;;43.79;45.40
12991;BME280;6560;57.692;11.958;2022-07-19T00:49:43;101403.41;;;43.31;46.88
12991;BME280;6560;57.692;11.958;2022-07-19T00:52:09;101399.88;;;43.28;46.59
12991;BME280;6560;57.692;11.958;2022-07-19T00:54:35;101350.28;;;43.20;46.20
12991;BME280;6560;57.692;11.958;2022-07-19T00:57:02;101373.81;;;43.66;44.88
12991;BME280;6560;57.692;11.958;2022-07-19T00:59:28;101397.34;;;42.86;47.64
12991;BME280;6560;57.692;11.958;2022-07-19T01:01:54;101408.66;;;42.61;48.67
12991;BME280;6560;57.692;11.958;2022-07-19T01:04:20;101408.03;;;42.54;49.44
12991;BME280;6560;57.692;11.958;2022-07-19T01:06:46;101392.72;;;42.66;48.67
12991;BME280;6560;57.692;11.958;2022-07-19T01:09:12;101401.78;;;42.70;48.49
12991;BME280;6560;57.692;11.958;2022-07-19T01:11:39;101403.84;;;42.46;49.16
12991;BME280;6560;57.692;11.958;2022-07-19T01:14:05;101397.09;;;42.90;47.98
12991;BME280;6560;57.692;11.958;2022-07-19T01:16:30;101366.53;;;43.09;46.70
12991;BME280;6560;57.692;11.958;2022-07-19T01:18:56;101409.34;;;42.86;48.01
12991;BME280;6560;57.692;11.958;2022-07-19T01:21:22;101414.94;;;42.46;49.11
12991;BME280;6560;57.692;11.958;2022-07-19T01:23:49;101416.91;;;42.63;49.12
12991;BME280;6560;57.692;11.958;2022-07-19T01:26:15;101411.25;;;42.45;49.24
12991;BME280;6560;57.692;11.958;2022-07-19T01:28:41;101346.31;;;41.90;49.93
12991;BME280;6560;57.692;11.958;2022-07-19T01:31:06;101415.84;;;42.46;49.43
12991;BME280;6560;57.692;11.958;2022-07-19T01:33:31;101415.38;;;42.15;50.18
12991;BME280;6560;57.692;11.958;2022-07-19T01:35:57;101378.50;;;41.94;50.46
12991;BME280;6560;57.692;11.958;2022-07-19T01:38:22;101406.28;;;42.13;50.60
12991;BME280;6560;57.692;11.958;2022-07-19T01:40:48;101403.63;;;42.30;49.61
12991;BME280;6560;57.692;11.958;2022-07-19T01:43:14;101412.88;;;42.70;48.43
12991;BME280;6560;57.692;11.958;2022-07-19T01:45:39;101408.69;;;43.19;47.10
12991;BME280;6560;57.692;11.958;2022-07-19T01:48:05;101412.97;;;43.98;45.26
12991;BME280;6560;57.692;11.958;2022-07-19T01:50:30;101382.56;;;43.23;46.07
12991;BME280;6560;57.692;11.958;2022-07-19T01:52:56;101409.75;;;42.77;47.59
12991;BME280;6560;57.692;11.958;2022-07-19T01:55:28;101416.25;;;43.15;47.01
12991;BME280;6560;57.692;11.958;2022-07-19T01:57:54;101381.28;;;42.92;47.27
12991;BME280;6560;57.692;11.958;2022-07-19T02:00:19;101418.47;;;42.88;47.39
12991;BME280;6560;57.692;11.958;2022-07-19T02:02:44;101416.47;;;42.53;48.18
12991;BME280;6560;57.692;11.958;2022-07-19T02:05:10;101409.97;;;43.12;46.65
12991;BME280;6560;57.692;11.958;2022-07-19T02:07:36;101415.47;;;42.54;47.82
12991;BME280;6560;57.692;11.958;2022-07-19T02:10:01;101420.66;;;42.62;48.29
12991;BME280;6560;57.692;11.958;2022-07-19T02:12:27;101423.41;;;42.62;48.32
12991;BME280;6560;57.692;11.958;2022-07-19T02:14:52;101423.13;;;42.68;48.10
12991;BME280;6560;57.692;11.958;2022-07-19T02:17:18;101415.94;;;42.23;49.19
12991;BME280;6560;57.692;11.958;2022-07-19T02:19:43;101424.06;;;42.28;49.16
12991;BME280;6560;57.692;11.958;2022-07-19T02:22:09;101409.69;;;42.98;48.69
12991;BME280;6560;57.692;11.958;2022-07-19T02:24:34;101407.00;;;42.96;46.94
12991;BME280;6560;57.692;11.958;2022-07-19T02:26:59;101413.84;;;42.69;47.94
12991;BME280;6560;57.692;11.958;2022-07-19T02:29:25;101401.25;;;42.41;48.16
12991;BME280;6560;57.692;11.958;2022-07-19T02:31:50;101421.50;;;42.23;49.40
12991;BME280;6560;57.692;11.958;2022-07-19T02:34:16;101352.06;;;42.65;47.57
12991;BME280;6560;57.692;11.958;2022-07-19T02:36:41;101380.38;;;42.73;47.69
12991;BME280;6560;57.692;11.958;2022-07-19T02:39:06;101418.31;;;42.52;48.49
12991;BME280;6560;57.692;11.958;2022-07-19T02:41:32;101421.06;;;42.34;49.67
12991;BME280;6560;57.692;11.958;2022-07-19T02:43:57;101422.34;;;42.45;49.13
12991;BME280;6560;57.692;11.958;2022-07-19T02:46:23;101416.53;;;42.51;49.16
12991;BME280;6560;57.692;11.958;2022-07-19T02:48:48;101383.78;;;42.60;47.95
12991;BME280;6560;57.692;11.958;2022-07-19T02:51:14;101419.28;;;42.72;48.92
12991;BME280;6560;57.692;11.958;2022-07-19T02:53:40;101358.91;;;42.96;47.20
12991;BME280;6560;57.692;11.958;2022-07-19T02:56:05;101423.50;;;42.99;47.51
12991;BME280;6560;57.692;11.958;2022-07-19T02:58:31;101417.56;;;42.88;47.94
12991;BME280;6560;57.692;11.958;2022-07-19T03:00:56;101421.78;;;42.97;47.85
12991;BME280;6560;57.692;11.958;2022-07-19T03:03:22;101433.47;;;43.03;48.11
12991;BME280;6560;57.692;11.958;2022-07-19T03:06:06;101416.69;;;43.06;48.28
12991;BME280;6560;57.692;11.958;2022-07-19T03:08:31;101435.00;;;42.91;48.76
12991;BME280;6560;57.692;11.958;2022-07-19T03:10:57;101426.97;;;42.85;49.59
12991;BME280;6560;57.692;11.958;2022-07-19T03:13:22;101418.78;;;43.20;49.16
12991;BME280;6560;57.692;11.958;2022-07-19T03:15:48;101441.13;;;43.90;48.96
12991;BME280;6560;57.692;11.958;2022-07-19T03:18:20;101444.34;;;44.69;48.61
12991;BME280;6560;57.692;11.958;2022-07-19T03:20:45;101443.56;;;45.62;46.84
12991;BME280;6560;57.692;11.958;2022-07-19T03:23:11;101448.84;;;46.28;45.82
12991;BME280;6560;57.692;11.958;2022-07-19T03:25:36;101442.03;;;46.18;47.17
12991;BME280;6560;57.692;11.958;2022-07-19T03:28:02;101433.03;;;45.83;48.38
12991;BME280;6560;57.692;11.958;2022-07-19T03:30:27;101420.47;;;45.60;48.56
12991;BME280;6560;57.692;11.958;2022-07-19T03:32:53;101446.03;;;46.58;46.48
12991;BME280;6560;57.692;11.958;2022-07-19T03:35:18;101444.94;;;47.17;45.79
12991;BME280;6560;57.692;11.958;2022-07-19T03:37:47;101443.38;;;47.69;45.41
12991;BME280;6560;57.692;11.958;2022-07-19T03:40:13;101449.66;;;47.72;45.62
12991;BME280;6560;57.692;11.958;2022-07-19T03:42:39;101446.44;;;48.05;45.66
12991;BME280;6560;57.692;11.958;2022-07-19T03:45:04;101455.13;;;48.91;43.90
12991;BME280;6560;57.692;11.958;2022-07-19T03:47:30;101451.53;;;48.38;45.98
12991;BME280;6560;57.692;11.958;2022-07-19T03:49:56;101430.47;;;48.58;46.06
12991;BME280;6560;57.692;11.958;2022-07-19T03:52:22;101431.41;;;48.96;45.24
12991;BME280;6560;57.692;11.958;2022-07-19T03:54:48;101406.09;;;49.34;44.10
12991;BME280;6560;57.692;11.958;2022-07-19T03:57:14;101413.78;;;49.80;43.54
12991;BME280;6560;57.692;11.958;2022-07-19T03:59:39;101448.91;;;49.97;43.49
12991;BME280;6560;57.692;11.958;2022-07-19T04:02:05;101435.91;;;50.42;43.83
12991;BME280;6560;57.692;11.958;2022-07-19T04:04:31;101438.63;;;52.09;41.29
12991;BME280;6560;57.692;11.958;2022-07-19T04:06:56;101437.19;;;52.98;40.15
12991;BME280;6560;57.692;11.958;2022-07-19T04:09:22;101452.81;;;53.51;38.91
12991;BME280;6560;57.692;11.958;2022-07-19T04:11:48;101445.91;;;54.23;37.31
12991;BME280;6560;57.692;11.958;2022-07-19T04:14:14;101439.00;;;53.58;37.67
12991;BME280;6560;57.692;11.958;2022-07-19T04:16:39;101439.25;;;52.96;37.65
12991;BME280;6560;57.692;11.958;2022-07-19T04:19:05;101439.03;;;55.10;36.00
12991;BME280;6560;57.692;11.958;2022-07-19T04:21:30;101447.59;;;54.16;35.99
12991;BME280;6560;57.692;11.958;2022-07-19T04:23:56;101448.44;;;55.01;34.39
12991;BME280;6560;57.692;11.958;2022-07-19T04:26:21;101444.38;;;55.04;34.30
12991;BME280;6560;57.692;11.958;2022-07-19T04:28:47;101456.94;;;55.56;33.84
12991;BME280;6560;57.692;11.958;2022-07-19T04:31:12;101445.72;;;55.64;32.43
12991;BME280;6560;57.692;11.958;2022-07-19T04:33:40;101452.31;;;56.00;32.94
12991;BME280;6560;57.692;11.958;2022-07-19T04:36:06;101453.56;;;57.19;32.06
12991;BME280;6560;57.692;11.958;2022-07-19T04:38:31;101452.19;;;56.63;32.39
12991;BME280;6560;57.692;11.958;2022-07-19T04:40:57;101457.38;;;57.27;30.97
12991;BME280;6560;57.692;11.958;2022-07-19T04:43:22;101466.72;;;57.20;31.13
12991;BME280;6560;57.692;11.958;2022-07-19T04:45:47;101470.97;;;59.20;28.43
12991;BME280;6560;57.692;11.958;2022-07-19T04:48:13;101475.06;;;59.64;28.64
12991;BME280;6560;57.692;11.958;2022-07-19T04:50:39;101479.66;;;59.34;27.55
12991;BME280;6560;57.692;11.958;2022-07-19T04:53:05;101460.31;;;59.92;28.28
12991;BME280;6560;57.692;11.958;2022-07-19T04:55:31;101471.44;;;61.43;26.20
12991;BME280;6560;57.692;11.958;2022-07-19T04:57:56;101464.66;;;61.29;26.47
12991;BME280;6560;57.692;11.958;2022-07-19T05:00:22;101466.66;;;62.22;25.27
12991;BME280;6560;57.692;11.958;2022-07-19T05:02:48;101475.53;;;63.52;23.83
12991;BME280;6560;57.692;11.958;2022-07-19T05:05:13;101466.13;;;63.71;22.81
12991;BME280;6560;57.692;11.958;2022-07-19T05:07:40;101464.47;;;62.73;22.89
12991;BME280;6560;57.692;11.958;2022-07-19T05:10:06;101476.22;;;62.85;22.70
12991;BME280;6560;57.692;11.958;2022-07-19T05:12:31;101476.34;;;63.87;21.78
12991;BME280;6560;57.692;11.958;2022-07-19T05:14:58;101481.09;;;62.91;21.74
12991;BME280;6560;57.692;11.958;2022-07-19T05:17:24;101472.59;;;60.15;23.39
12991;BME280;6560;57.692;11.958;2022-07-19T05:19:49;101465.13;;;60.89;23.49
12991;BME280;6560;57.692;11.958;2022-07-19T05:22:14;101469.13;;;62.53;21.38
12991;BME280;6560;57.692;11.958;2022-07-19T05:24:40;101484.94;;;63.05;19.85
12991;BME280;6560;57.692;11.958;2022-07-19T05:27:05;101476.47;;;62.13;21.63
12991;BME280;6560;57.692;11.958;2022-07-19T05:29:31;101489.22;;;63.63;20.43
12991;BME280;6560;57.692;11.958;2022-07-19T05:31:56;101460.91;;;63.81;19.76
12991;BME280;6560;57.692;11.958;2022-07-19T05:34:22;101473.22;;;65.20;19.09
12991;BME280;6560;57.692;11.958;2022-07-19T05:36:47;101467.53;;;63.00;19.22
12991;BME280;6560;57.692;11.958;2022-07-19T05:39:13;101462.38;;;62.61;20.59
12991;BME280;6560;57.692;11.958;2022-07-19T05:41:40;101462.19;;;62.62;19.42
12991;BME280;6560;57.692;11.958;2022-07-19T05:44:05;101463.41;;;64.30;18.93
12991;BME280;6560;57.692;11.958;2022-07-19T05:46:31;101463.91;;;61.93;19.17
12991;BME280;6560;57.692;11.958;2022-07-19T05:48:56;101473.50;;;61.34;19.46
12991;BME280;6560;57.692;11.958;2022-07-19T05:51:22;101463.94;;;60.83;20.11
12991;BME280;6560;57.692;11.958;2022-07-19T05:53:47;101472.28;;;60.70;20.28
12991;BME280;6560;57.692;11.958;2022-07-19T05:56:13;101473.91;;;60.04;19.71
12991;BME280;6560;57.692;11.958;2022-07-19T05:58:38;101450.19;;;59.58;20.24
12991;BME280;6560;57.692;11.958;2022-07-19T06:01:05;101467.56;;;60.40;20.24
12991;BME280;6560;57.692;11.958;2022-07-19T06:03:47;101479.09;;;61.13;18.94
12991;BME280;6560;57.692;11.958;2022-07-19T06:06:13;101476.56;;;61.04;20.39
12991;BME280;6560;57.692;11.958;2022-07-19T06:08:39;101465.22;;;61.25;20.11
12991;BME280;6560;57.692;11.958;2022-07-19T06:11:05;101480.53;;;61.68;19.70
12991;BME280;6560;57.692;11.958;2022-07-19T06:13:30;101475.47;;;62.06;19.62
12991;BME280;6560;57.692;11.958;2022-07-19T06:15:56;101441.06;;;61.93;19.34
12991;BME280;6560;57.692;11.958;2022-07-19T06:18:21;101472.63;;;62.76;19.04
12991;BME280;6560;57.692;11.958;2022-07-19T06:20:47;101428.28;;;62.10;19.03
12991;BME280;6560;57.692;11.958;2022-07-19T06:23:12;101458.16;;;61.71;19.05
12991;BME280;6560;57.692;11.958;2022-07-19T06:25:38;101432.25;;;60.93;19.67
12991;BME280;6560;57.692;11.958;2022-07-19T06:28:03;101401.97;;;60.25;20.16
12991;BME280;6560;57.692;11.958;2022-07-19T06:30:29;101464.69;;;60.25;20.47
12991;BME280;6560;57.692;11.958;2022-07-19T06:32:54;101456.75;;;59.90;20.31
12991;BME280;6560;57.692;11.958;2022-07-19T06:35:20;101452.44;;;60.39;20.76
12991;BME280;6560;57.692;11.958;2022-07-19T06:37:45;101439.94;;;61.22;20.52
12991;BME280;6560;57.692;11.958;2022-07-19T06:40:11;101437.19;;;62.22;19.56
12991;BME280;6560;57.692;11.958;2022-07-19T06:42:37;101403.72;;;61.08;19.90
12991;BME280;6560;57.692;11.958;2022-07-19T06:45:03;101379.22;;;61.28;19.60
12991;BME280;6560;57.692;11.958;2022-07-19T06:47:30;101392.59;;;60.54;20.30
12991;BME280;6560;57.692;11.958;2022-07-19T06:49:55;101344.59;;;59.37;20.80
12991;BME280;6560;57.692;11.958;2022-07-19T06:52:21;101365.72;;;59.12;21.08
12991;BME280;6560;57.692;11.958;2022-07-19T06:54:46;101399.47;;;58.67;20.95
12991;BME280;6560;57.692;11.958;2022-07-19T06:57:12;101427.59;;;57.89;21.33
12991;BME280;6560;57.692;11.958;2022-07-19T06:59:37;101446.75;;;58.04;21.32
12991;BME280;6560;57.692;11.958;2022-07-19T07:02:04;101441.78;;;57.89;21.65
12991;BME280;6560;57.692;11.958;2022-07-19T07:04:30;101434.53;;;58.11;21.53
12991;BME280;6560;57.692;11.958;2022-07-19T07:06:56;101451.72;;;58.02;21.42
12991;BME280;6560;57.692;11.958;2022-07-19T07:09:22;101463.97;;;57.86;21.61
12991;BME280;6560;57.692;11.958;2022-07-19T07:11:47;101482.16;;;57.59;21.90
12991;BME280;6560;57.692;11.958;2022-07-19T07:14:13;101481.28;;;56.91;22.37
12991;BME280;6560;57.692;11.958;2022-07-19T07:16:38;101492.91;;;57.13;22.63
12991;BME280;6560;57.692;11.958;2022-07-19T07:19:04;101507.34;;;58.20;22.21
12991;BME280;6560;57.692;11.958;2022-07-19T07:21:30;101515.19;;;58.51;22.62
12991;BME280;6560;57.692;11.958;2022-07-19T07:23:58;101517.56;;;57.97;22.46
12991;BME280;6560;57.692;11.958;2022-07-19T07:26:24;101520.78;;;57.94;22.57
12991;BME280;6560;57.692;11.958;2022-07-19T07:28:49;101508.81;;;58.41;22.57
12991;BME280;6560;57.692;11.958;2022-07-19T07:31:15;101505.41;;;58.70;22.20
12991;BME280;6560;57.692;11.958;2022-07-19T07:33:40;101537.56;;;58.78;21.98
12991;BME280;6560;57.692;11.958;2022-07-19T07:36:06;101528.13;;;58.21;22.42
12991;BME280;6560;57.692;11.958;2022-07-19T07:38:32;101499.72;;;58.21;22.14
12991;BME280;6560;57.692;11.958;2022-07-19T07:40:57;101531.72;;;58.47;22.28
12991;BME280;6560;57.692;11.958;2022-07-19T07:43:22;101542.88;;;58.16;22.81
12991;BME280;6560;57.692;11.958;2022-07-19T07:45:48;101527.88;;;57.48;23.15
12991;BME280;6560;57.692;11.958;2022-07-19T07:48:14;101528.13;;;56.77;24.02
12991;BME280;6560;57.692;11.958;2022-07-19T07:50:40;101528.97;;;58.05;23.49
12991;BME280;6560;57.692;11.958;2022-07-19T07:53:06;101533.63;;;58.30;23.37
12991;BME280;6560;57.692;11.958;2022-07-19T07:55:31;101519.34;;;57.82;23.22
12991;BME280;6560;57.692;11.958;2022-07-19T07:58:02;101520.16;;;59.44;22.21
12991;BME280;6560;57.692;11.958;2022-07-19T08:00:28;101500.78;;;60.33;21.53
12991;BME280;6560;57.692;11.958;2022-07-19T08:02:53;101476.63;;;60.20;21.26
12991;BME280;6560;57.692;11.958;2022-07-19T08:05:22;101506.06;;;59.51;21.42
12991;BME280;6560;57.692;11.958;2022-07-19T08:07:47;101507.13;;;59.89;21.74
12991;BME280;6560;57.692;11.958;2022-07-19T08:10:13;101506.38;;;60.64;20.68
12991;BME280;6560;57.692;11.958;2022-07-19T08:12:39;101494.06;;;59.72;20.79
12991;BME280;6560;57.692;11.958;2022-07-19T08:15:05;101505.66;;;60.47;20.10
12991;BME280;6560;57.692;11.958;2022-07-19T08:17:31;101479.91;;;60.09;20.17
12991;BME280;6560;57.692;11.958;2022-07-19T08:19:56;101475.03;;;59.25;20.58
12991;BME280;6560;57.692;11.958;2022-07-19T08:22:21;101507.75;;;58.42;20.97
12991;BME280;6560;57.692;11.958;2022-07-19T08:24:47;101498.66;;;58.79;20.73
12991;BME280;6560;57.692;11.958;2022-07-19T08:27:12;101461.34;;;58.17;21.10
12991;BME280;6560;57.692;11.958;2022-07-19T08:29:38;101514.81;;;58.21;21.23
12991;BME280;6560;57.692;11.958;2022-07-19T08:32:05;101535.25;;;58.65;20.85
12991;BME280;6560;57.692;11.958;2022-07-19T08:34:30;101521.09;;;57.41;21.62
12991;BME280;6560;57.692;11.958;2022-07-19T08:36:56;101507.41;;;57.02;21.39
12991;BME280;6560;57.692;11.958;2022-07-19T08:39:21;101510.75;;;56.19;22.40
12991;BME280;6560;57.692;11.958;2022-07-19T08:41:47;101528.06;;;56.16;22.10
12991;BME280;6560;57.692;11.958;2022-07-19T08:44:13;101581.19;;;56.85;22.06
12991;BME280;6560;57.692;11.958;2022-07-19T08:46:40;101550.44;;;56.36;22.34
12991;BME280;6560;57.692;11.958;2022-07-19T08:49:06;101590.09;;;56.54;22.49
12991;BME280;6560;57.692;11.958;2022-07-19T08:51:32;101589.00;;;56.20;22.68
12991;BME280;6560;57.692;11.958;2022-07-19T08:53:58;101596.53;;;56.38;22.89
12991;BME280;6560;57.692;11.958;2022-07-19T08:56:23;101586.31;;;57.07;22.42
12991;BME280;6560;57.692;11.958;2022-07-19T08:59:07;101559.38;;;56.85;21.20
12991;BME280;6560;57.692;11.958;2022-07-19T09:01:33;101558.56;;;56.93;21.42
12991;BME280;6560;57.692;11.958;2022-07-19T09:04:25;101585.63;;;57.13;20.81
12991;BME280;6560;57.692;11.958;2022-07-19T09:06:54;101583.91;;;57.46;20.96
12991;BME280;6560;57.692;11.958;2022-07-19T09:09:31;101574.41;;;56.86;21.02
12991;BME280;6560;57.692;11.958;2022-07-19T09:11:59;101553.75;;;55.87;21.97
12991;BME280;6560;57.692;11.958;2022-07-19T09:14:27;101582.53;;;55.82;22.16
12991;BME280;6560;57.692;11.958;2022-07-19T09:17:05;101581.25;;;56.39;22.02
12991;BME280;6560;57.692;11.958;2022-07-19T09:19:38;101590.38;;;57.56;21.17
12991;BME280;6560;57.692;11.958;2022-07-19T09:22:07;101587.75;;;57.63;20.93
12991;BME280;6560;57.692;11.958;2022-07-19T09:24:40;101593.81;;;57.42;20.70
12991;BME280;6560;57.692;11.958;2022-07-19T09:27:08;101574.47;;;57.37;20.94
12991;BME280;6560;57.692;11.958;2022-07-19T09:29:38;101599.78;;;56.87;20.74
12991;BME280;6560;57.692;11.958;2022-07-19T09:34:31;101595.22;;;57.64;20.07
12991;BME280;6560;57.692;11.958;2022-07-19T09:39:40;101589.22;;;56.89;21.40
12991;BME280;6560;57.692;11.958;2022-07-19T09:42:09;101600.66;;;57.05;21.19
12991;BME280;6560;57.692;11.958;2022-07-19T09:44:34;101575.22;;;56.52;20.97
12991;BME280;6560;57.692;11.958;2022-07-19T09:47:00;101612.22;;;55.32;21.30
12991;BME280;6560;57.692;11.958;2022-07-19T09:49:25;101618.19;;;55.38;21.15
12991;BME280;6560;57.692;11.958;2022-07-19T09:51:52;101610.81;;;54.99;21.63
12991;BME280;6560;57.692;11.958;2022-07-19T09:54:21;101610.09;;;55.53;21.39
12991;BME280;6560;57.692;11.958;2022-07-19T09:56:48;101610.13;;;55.80;20.95
12991;BME280;6560;57.692;11.958;2022-07-19T09:59:25;101614.16;;;56.50;20.30
12991;BME280;6560;57.692;11.958;2022-07-19T10:01:55;101583.41;;;56.37;19.96
12991;BME280;6560;57.692;11.958;2022-07-19T10:04:34;101581.38;;;56.30;19.81
12991;BME280;6560;57.692;11.958;2022-07-19T10:07:00;101584.59;;;55.90;20.20
12991;BME280;6560;57.692;11.958;2022-07-19T10:09:27;101571.72;;;55.95;20.45
12991;BME280;6560;57.692;11.958;2022-07-19T10:11:52;101591.81;;;54.81;21.27
12991;BME280;6560;57.692;11.958;2022-07-19T10:14:18;101599.06;;;55.13;21.19
12991;BME280;6560;57.692;11.958;2022-07-19T10:19:37;101599.09;;;54.45;21.97
12991;BME280;6560;57.692;11.958;2022-07-19T10:22:03;101595.47;;;54.34;21.28
12991;BME280;6560;57.692;11.958;2022-07-19T10:27:18;101606.56;;;53.57;20.91
12991;BME280;6560;57.692;11.958;2022-07-19T10:29:44;101574.25;;;52.99;21.50
12991;BME280;6560;57.692;11.958;2022-07-19T10:32:12;101596.28;;;54.55;20.58
12991;BME280;6560;57.692;11.958;2022-07-19T10:34:38;101601.47;;;53.81;21.39
12991;BME280;6560;57.692;11.958;2022-07-19T10:37:04;101587.31;;;55.08;20.35
12991;BME280;6560;57.692;11.958;2022-07-19T10:39:33;101590.09;;;53.71;20.53
12991;BME280;6560;57.692;11.958;2022-07-19T10:42:13;101586.31;;;53.82;21.36
12991;BME280;6560;57.692;11.958;2022-07-19T10:50:07;101592.94;;;54.21;20.86
12991;BME280;6560;57.692;11.958;2022-07-19T10:52:40;101583.88;;;54.27;20.75
12991;BME280;6560;57.692;11.958;2022-07-19T11:00:40;101578.25;;;54.85;20.10
12991;BME280;6560;57.692;11.958;2022-07-19T11:06:00;101589.94;;;54.23;21.25
12991;BME280;6560;57.692;11.958;2022-07-19T11:08:33;101596.97;;;54.28;20.95
12991;BME280;6560;57.692;11.958;2022-07-19T11:11:18;101596.63;;;53.62;21.04
12991;BME280;6560;57.692;11.958;2022-07-19T11:13:49;101586.25;;;54.13;20.41
12991;BME280;6560;57.692;11.958;2022-07-19T11:16:15;101541.47;;;54.08;20.97
12991;BME280;6560;57.692;11.958;2022-07-19T11:18:41;101589.72;;;54.74;21.03
12991;BME280;6560;57.692;11.958;2022-07-19T11:21:12;101571.28;;;54.60;21.62
12991;BME280;6560;57.692;11.958;2022-07-19T11:23:38;101599.19;;;55.21;21.22
12991;BME280;6560;57.692;11.958;2022-07-19T11:28:43;101598.00;;;54.37;22.29
12991;BME280;6560;57.692;11.958;2022-07-19T11:31:17;101602.63;;;54.28;21.38
12991;BME280;6560;57.692;11.958;2022-07-19T11:33:44;101587.41;;;54.10;21.85
12991;BME280;6560;57.692;11.958;2022-07-19T11:36:11;101595.50;;;54.53;21.82
12991;BME280;6560;57.692;11.958;2022-07-19T11:38:46;101611.72;;;53.82;22.58
12991;BME280;6560;57.692;11.958;2022-07-19T11:41:37;101609.19;;;53.28;22.33
12991;BME280;6560;57.692;11.958;2022-07-19T11:44:05;101612.94;;;53.59;22.61
12991;BME280;6560;57.692;11.958;2022-07-19T11:46:33;101568.69;;;52.35;23.31
12991;BME280;6560;57.692;11.958;2022-07-19T11:49:10;101614.59;;;53.41;22.59
12991;BME280;6560;57.692;11.958;2022-07-19T11:51:37;101616.31;;;53.32;22.51
12991;BME280;6560;57.692;11.958;2022-07-19T11:54:05;101623.72;;;53.03;22.49
12991;BME280;6560;57.692;11.958;2022-07-19T11:56:33;101603.41;;;53.29;22.02
12991;BME280;6560;57.692;11.958;2022-07-19T11:59:02;101618.19;;;53.43;21.18
12991;BME280;6560;57.692;11.958;2022-07-19T12:01:32;101628.97;;;53.58;21.87
12991;BME280;6560;57.692;11.958;2022-07-19T12:04:02;101635.34;;;52.57;21.80
12991;BME280;6560;57.692;11.958;2022-07-19T12:06:43;101610.09;;;52.23;21.81
12991;BME280;6560;57.692;11.958;2022-07-19T12:09:14;101622.44;;;52.75;21.37
12991;BME280;6560;57.692;11.958;2022-07-19T12:11:51;101585.03;;;52.73;21.40
12991;BME280;6560;57.692;11.958;2022-07-19T12:14:22;101618.13;;;53.33;21.47
12991;BME280;6560;57.692;11.958;2022-07-19T12:16:50;101622.03;;;53.42;21.17
12991;BME280;6560;57.692;11.958;2022-07-19T12:19:16;101605.91;;;53.23;21.54
12991;BME280;6560;57.692;11.958;2022-07-19T12:21:43;101618.00;;;53.44;21.83
12991;BME280;6560;57.692;11.958;2022-07-19T12:24:22;101620.69;;;52.31;22.25
12991;BME280;6560;57.692;11.958;2022-07-19T12:29:19;101611.56;;;53.12;20.79
12991;BME280;6560;57.692;11.958;2022-07-19T12:31:46;101593.53;;;53.45;20.57
12991;BME280;6560;57.692;11.958;2022-07-19T12:34:16;101619.47;;;53.59;21.11
12991;BME280;6560;57.692;11.958;2022-07-19T12:36:42;101612.53;;;52.80;21.27
12991;BME280;6560;57.692;11.958;2022-07-19T12:39:28;101582.59;;;51.93;20.72
12991;BME280;6560;57.692;11.958;2022-07-19T12:41:56;101589.34;;;52.13;21.47
12991;BME280;6560;57.692;11.958;2022-07-19T12:44:21;101622.84;;;52.27;21.61
12991;BME280;6560;57.692;11.958;2022-07-19T12:46:47;101603.47;;;52.77;21.12
12991;BME280;6560;57.692;11.958;2022-07-19T12:49:12;101622.19;;;52.99;20.94
12991;BME280;6560;57.692;11.958;2022-07-19T12:51:37;101607.84;;;53.53;21.48
12991;BME280;6560;57.692;11.958;2022-07-19T12:54:07;101599.56;;;53.10;21.49
12991;BME280;6560;57.692;11.958;2022-07-19T12:56:33;101615.75;;;52.55;22.09
12991;BME280;6560;57.692;11.958;2022-07-19T12:58:58;101608.63;;;52.92;21.67
12991;BME280;6560;57.692;11.958;2022-07-19T13:01:42;101610.31;;;52.95;21.79
12991;BME280;6560;57.692;11.958;2022-07-19T13:04:08;101600.88;;;52.53;22.15
12991;BME280;6560;57.692;11.958;2022-07-19T13:06:33;101617.91;;;51.75;23.03
12991;BME280;6560;57.692;11.958;2022-07-19T13:08:59;101622.28;;;52.44;22.67
12991;BME280;6560;57.692;11.958;2022-07-19T13:11:24;101620.88;;;51.40;23.12
12991;BME280;6560;57.692;11.958;2022-07-19T13:13:52;101623.19;;;51.79;22.66
12991;BME280;6560;57.692;11.958;2022-07-19T13:16:17;101620.41;;;53.18;21.57
12991;BME280;6560;57.692;11.958;2022-07-19T13:18:43;101623.47;;;53.97;21.30